Flight Track Log - Related Links

Times and Time Zones

All times are in EST time to prevent confusion due to time zone crossing. See the N504JC flight status page for this flight to view local times or setup timezone preferences in your user account.

Time Position Orientation Groundspeed Altitude Reporting Facility
EST Latitude Longitude Course Direction KTS MPH feet Rate Location/Type
Mon 11:22:51 AM 42.1176 -76.8833 148° Southeast  Level FlightAware Approximate
Mon 11:23:27 AM 41.8381 -76.6533 188° South 160 184 8,500  Level New York Center
Mon 11:24:27 AM 41.7961 -76.6608 184° South 160 184 8,500 50 Level New York Center
Mon 11:25:28 AM 41.7522 -76.6653 189° South 160 184 8,600 99 Climbing New York Center
Mon 11:26:28 AM 41.7058 -76.6750 187° South 160 184 8,700 50 Climbing New York Center
Mon 11:27:27 AM 41.6617 -76.6822 185° South 160 184 8,700  Level New York Center
Mon 11:28:27 AM 41.6219 -76.6869 184° South 160 184 8,700 -49 Level New York Center
Mon 11:29:29 AM 41.5781 -76.6914 184° South 160 184 8,600 -98 Descending New York Center
Mon 11:30:30 AM 41.5297 -76.6956 188° South 160 184 8,500 -51 Descending New York Center
Mon 11:31:27 AM 41.4900 -76.7031 188° South 160 184 8,500  Level New York Center
Mon 11:32:28 AM 41.4478 -76.7106 187° South 160 184 8,500  Level New York Center
Mon 11:33:29 AM 41.4036 -76.7178 187° South 160 184 8,500  Level New York Center
Mon 11:34:27 AM 41.3597 -76.7247 188° South 160 184 8,500 50 Level New York Center
Mon 11:35:28 AM 41.3175 -76.7322 184° South 160 184 8,600 49 Climbing New York Center
Mon 11:36:29 AM 41.2736 -76.7367 185° South 160 184 8,600  Level New York Center
Mon 11:37:29 AM 41.2317 -76.7411 190° South 160 184 8,600  Level New York Center
Mon 11:38:29 AM 41.1875 -76.7511 182° South 160 184 8,600  Level New York Center
Mon 11:39:27 AM 41.1458 -76.7528 182° South 160 184 8,600 51 Level New York Center
Mon 11:40:27 AM 41.1019 -76.7544 182° South 160 184 8,700 50 Climbing New York Center
Mon 11:41:27 AM 41.0600 -76.7564 187° South 160 184 8,700 -50 Level New York Center
Mon 11:42:28 AM 41.0161 -76.7633 187° South 160 184 8,600 -98 Descending New York Center
Mon 11:43:29 AM 40.9719 -76.7706 187° South 160 184 8,500 -50 Descending New York Center
Mon 11:44:27 AM 40.9278 -76.7778 198° South 160 184 8,500 -50 Level New York Center
Mon 11:45:28 AM 40.8850 -76.7958 196° South 160 184 8,400 -49 Descending New York Center
Mon 11:46:29 AM 40.8428 -76.8114 188° South 154 177 8,400  Level New York Center
Mon 11:47:30 AM 40.8047 -76.8189 184° South 154 177 8,400  Level New York Center
Mon 11:48:27 AM 40.7608 -76.8233 183° South 149 171 8,400  Level New York Center
Mon 11:49:28 AM 40.7231 -76.8256 184° South 149 171 8,400  Level New York Center
Mon 11:50:28 AM 40.6772 -76.8294 186° South 149 171 8,400 50 Level New York Center
Mon 11:51:29 AM 40.6414 -76.8347 184° South 149 171 8,500 98 Climbing New York Center
Mon 11:52:30 AM 40.5953 -76.8389 185° South 149 171 8,600 51 Climbing New York Center
Mon 11:53:27 AM 40.5556 -76.8433 187° South 154 177 8,600  Level New York Center
Mon 11:54:28 AM 40.5133 -76.8506 186° South 154 177 8,600  Level New York Center
Mon 11:55:29 AM 40.4756 -76.8556 184° South 154 177 8,600  Level New York Center
Mon 11:56:30 AM 40.4297 -76.8597 182° South 154 177 8,600 51 Level New York Center
Mon 11:57:27 AM 40.3878 -76.8614 185° South 154 177 8,700 51 Climbing New York Center
Mon 11:58:28 AM 40.3458 -76.8658 185° South 154 177 8,700  Level New York Center
Mon 11:59:29 AM 40.3039 -76.8703 189° South 154 177 8,700  Level New York Center
Mon 12:00:29 PM 40.2681 -76.8781 187° South 154 177 8,700  Level New York Center
Mon 12:01:29 PM 40.2219 -76.8850 182° South 149 171 8,700 -51 Level New York Center
Mon 12:02:27 PM 40.1800 -76.8867 185° South 149 171 8,600 -153 Descending New York Center
Mon 12:03:27 PM 40.1422 -76.8914 183° South 154 177 8,400 -239 Descending New York Center
Mon 12:05:48 PM 40.0333 -76.9000 180° South 159 183 7,800 -267 Descending Potomac TRACON
Mon 12:06:49 PM 39.9833 -76.9000 189° South 159 183 7,500 -309 Descending Potomac TRACON
Mon 12:08:43 PM 39.9000 -76.9167 180° South 156 180 6,900 -345 Descending Potomac TRACON
Mon 12:09:43 PM 39.8667 -76.9167 194° South 156 180 6,500 -350 Descending Potomac TRACON
Mon 12:10:43 PM 39.8167 -76.9333 180° South 156 180 6,200 -350 Descending Potomac TRACON
Mon 12:11:43 PM 39.7667 -76.9333 180° South 162 186 5,800 -350 Descending Potomac TRACON
Mon 12:12:43 PM 39.7333 -76.9333 180° South 162 186 5,500 -300 Descending Potomac TRACON
Mon 12:13:43 PM 39.6833 -76.9333 180° South 165 190 5,200 -368 Descending Potomac TRACON
Mon 12:14:37 PM 39.6500 -76.9333 180° South 160 184 4,800 -313 Descending Potomac TRACON
Mon 12:15:38 PM 39.6000 -76.9333 180° South 156 180 4,600 -261 Descending Potomac TRACON
Mon 12:16:32 PM 39.5500 -76.9333 180° South 158 182 4,300 -474 Descending Potomac TRACON
Mon 12:17:32 PM 39.5167 -76.9333 159° South 162 186 3,700 -579 Descending Potomac TRACON
Mon 12:18:26 PM 39.4833 -76.9167 180° South 156 180 3,200 -526 Descending Potomac TRACON
Mon 12:19:26 PM 39.4333 -76.9167 163° South 149 171 2,700 -365 Descending Potomac TRACON
Mon 12:21:27 PM 39.3500 -76.8833 169° South 151 174 2,100 -306 Descending Potomac TRACON
Mon 12:23:21 PM 39.2833 -76.8667 180° South 151 174 1,500 -267 Descending Potomac TRACON
Mon 12:24:27 PM 39.2333 -76.8667 142° Southeast 135 155 1,300 -100 Descending Potomac TRACON
Mon 12:25:21 PM 39.2167 -76.8500 180° South 137 158 1,300  Level Potomac TRACON
Mon 12:26:21 PM 39.1667 -76.8500 159° South 137 158 1,300  Level Potomac TRACON
Mon 12:27:21 PM 39.1333 -76.8333 159° South 137 158 1,300  Level Potomac TRACON
Mon 12:28:16 PM 39.1000 -76.8167 159° South 137 158 1,300 52 Level Potomac TRACON
Mon 12:29:16 PM 39.0667 -76.8000 159° South 130 150 1,400 200 Climbing Potomac TRACON
Mon 12:30:16 PM 39.0333 -76.7833 159° South 128 147 1,700 50 Climbing Potomac TRACON
Mon 12:31:16 PM 39.0000 -76.7667 165° South 141 162 1,500 -150 Descending Potomac TRACON
Mon 12:32:16 PM 38.9500 -76.7500 159° South 135 155 1,400 -100 Descending Potomac TRACON
Mon 12:33:16 PM 38.9167 -76.7333 159° South 137 158 1,300 -50 Descending Potomac TRACON
Mon 12:34:16 PM 38.8833 -76.7167 159° South 131 151 1,300  Level Potomac TRACON
Mon 12:35:16 PM 38.8500 -76.7000 180° South 132 152 1,300  Level Potomac TRACON
Mon 12:36:17 PM 38.8167 -76.7000 180° South 132 152 1,300  Level Potomac TRACON
Mon 12:37:11 PM 38.7833 -76.7000 201° Southwest 136 157 1,300  Level Potomac TRACON
Mon 12:38:17 PM 38.7500 -76.7167 201° Southwest 128 147 1,300  Level Potomac TRACON
Mon 12:39:11 PM 38.7167 -76.7333 237° Southwest 128 147 1,300  Level Potomac TRACON
Mon 12:40:17 PM 38.7000 -76.7667 247° West 123 142 1,300  Level Potomac TRACON
Mon 12:41:12 PM 38.6833 -76.8167 270° West 116 133 1,300 -52 Level Potomac TRACON
Mon 12:42:12 PM 38.6833 -76.8500 270° West 114 131 1,200 -100 Descending Potomac TRACON

Login

Don't have an account? Register now (free) for customized features, flight alerts, and more!